createdAt,value
2023-05-25T00:02:25.951Z,57.40
2023-05-25T00:04:54.271Z,57.38
2023-05-25T00:07:22.493Z,56.75
2023-05-25T00:09:50.863Z,58.17
2023-05-25T00:12:18.965Z,60.15
2023-05-25T00:14:47.118Z,57.72
2023-05-25T00:17:18.605Z,57.60
2023-05-25T00:19:47.149Z,57.95
2023-05-25T00:22:15.392Z,56.72
2023-05-25T00:24:43.556Z,60.15
2023-05-25T00:27:11.661Z,58.08
2023-05-25T00:29:39.689Z,57.33
2023-05-25T00:32:08.455Z,58.30
2023-05-25T00:34:38.632Z,57.78
2023-05-25T00:37:07.271Z,57.70
2023-05-25T00:39:35.298Z,58.22
2023-05-25T00:42:04.367Z,58.20
2023-05-25T00:44:32.354Z,56.90
2023-05-25T00:47:01.618Z,56.92
2023-05-25T00:49:32.136Z,58.20
2023-05-25T00:52:01.761Z,58.55
2023-05-25T00:54:30.229Z,57.88
2023-05-25T00:57:04.309Z,58.42
2023-05-25T00:59:40.955Z,57.88
2023-05-25T01:02:10.664Z,58.33
2023-05-25T01:04:41.946Z,56.35
2023-05-25T01:07:14.010Z,56.08
2023-05-25T01:09:45.760Z,53.97
2023-05-25T01:12:16.508Z,54.30
2023-05-25T01:14:46.852Z,55.15
2023-05-25T01:17:16.798Z,54.20
2023-05-25T01:19:49.713Z,54.95
2023-05-25T01:22:33.883Z,54.08
2023-05-25T01:25:07.933Z,53.10
2023-05-25T01:27:41.086Z,52.90
2023-05-25T01:30:13.762Z,53.63
2023-05-25T01:32:43.543Z,52.30
2023-05-25T01:35:12.213Z,53.70
2023-05-25T01:37:47.257Z,51.97
2023-05-25T01:40:15.890Z,52.58
2023-05-25T01:42:43.941Z,53.03
2023-05-25T01:45:13.777Z,53.83
2023-05-25T01:47:47.266Z,51.95
2023-05-25T01:50:23.637Z,50.05
2023-05-25T01:52:58.117Z,50.58
2023-05-25T01:55:28.691Z,53.35
2023-05-25T01:58:00.287Z,51.35
2023-05-25T02:00:32.223Z,52.35
2023-05-25T02:03:01.945Z,52.35
2023-05-25T02:05:30.148Z,51.67
2023-05-25T02:07:59.749Z,52.70
2023-05-25T02:10:27.808Z,53.35
2023-05-25T02:12:55.939Z,52.55
2023-05-25T02:15:24.336Z,51.50
2023-05-25T02:17:52.597Z,51.05
2023-05-25T02:20:20.697Z,51.95
2023-05-25T02:22:48.787Z,51.45
2023-05-25T02:25:18.494Z,51.53
2023-05-25T02:27:46.960Z,51.33
2023-05-25T02:30:15.695Z,51.30
2023-05-25T02:32:43.834Z,49.30
2023-05-25T02:35:11.834Z,49.47
2023-05-25T02:37:40.333Z,50.58
2023-05-25T02:40:10.939Z,50.08
2023-05-25T02:42:40.447Z,49.13
2023-05-25T02:45:11.865Z,48.75
2023-05-25T02:47:40.005Z,49.35
2023-05-25T02:50:08.771Z,48.50
2023-05-25T02:52:36.971Z,52.60
2023-05-25T02:55:06.163Z,49.70
2023-05-25T02:57:34.275Z,48.22
2023-05-25T03:00:06.996Z,49.53
2023-05-25T03:02:35.294Z,46.85
2023-05-25T03:05:04.676Z,46.78
2023-05-25T03:07:33.309Z,48.42
2023-05-25T03:10:01.342Z,47.22
2023-05-25T03:12:29.382Z,48.30
2023-05-25T03:14:57.816Z,47.42
2023-05-25T03:17:27.416Z,47.80
2023-05-25T03:19:55.741Z,48.22
2023-05-25T03:22:23.994Z,47.90
2023-05-25T03:24:52.043Z,49.65
2023-05-25T03:27:20.074Z,49.50
2023-05-25T03:29:50.156Z,48.75
2023-05-25T03:32:18.433Z,48.90
2023-05-25T03:34:47.982Z,48.35
2023-05-25T03:37:16.025Z,48.55
2023-05-25T03:39:44.015Z,49.30
2023-05-25T03:42:12.155Z,48.00
2023-05-25T03:44:41.207Z,48.95
2023-05-25T03:47:09.414Z,49.72
2023-05-25T03:49:37.662Z,49.30
2023-05-25T03:52:08.125Z,51.10
2023-05-25T03:54:36.600Z,49.38
2023-05-25T03:57:10.399Z,49.40
2023-05-25T03:59:38.325Z,48.78
2023-05-25T04:02:06.781Z,49.72
2023-05-25T04:04:35.163Z,48.42
2023-05-25T04:07:03.212Z,48.33
2023-05-25T04:09:32.680Z,48.42
2023-05-25T04:12:02.379Z,48.00
2023-05-25T04:14:30.715Z,50.05
2023-05-25T04:16:58.829Z,49.40
2023-05-25T04:19:26.860Z,49.03
2023-05-25T04:21:55.052Z,47.67
2023-05-25T04:24:23.186Z,48.22
2023-05-25T04:26:52.696Z,47.30
2023-05-25T04:29:20.868Z,46.33
2023-05-25T04:31:49.677Z,45.83
2023-05-25T04:34:18.105Z,46.45
2023-05-25T04:36:47.746Z,45.83
2023-05-25T04:39:15.977Z,45.05
2023-05-25T04:41:44.504Z,45.95
2023-05-25T04:44:14.706Z,44.75
2023-05-25T04:46:42.720Z,45.58
2023-05-25T04:49:11.011Z,44.90
2023-05-25T04:51:39.151Z,44.83
2023-05-25T04:54:07.774Z,45.53
2023-05-25T04:56:36.522Z,44.55
2023-05-25T04:59:05.178Z,45.38
2023-05-25T05:01:40.719Z,45.70
2023-05-25T05:04:09.355Z,45.00
2023-05-25T05:06:37.989Z,45.03
2023-05-25T05:09:06.177Z,46.45
2023-05-25T05:11:35.004Z,45.47
2023-05-25T05:14:03.107Z,47.10
2023-05-25T05:16:34.881Z,44.25
2023-05-25T05:19:04.723Z,46.22
2023-05-25T05:21:33.621Z,45.17
2023-05-25T05:24:01.799Z,45.63
2023-05-25T05:26:30.627Z,47.15
2023-05-25T05:28:59.586Z,45.53
2023-05-25T05:31:27.829Z,45.97
2023-05-25T05:33:55.965Z,45.90
2023-05-25T05:36:25.799Z,45.72
2023-05-25T05:38:53.881Z,45.25
2023-05-25T05:41:21.965Z,45.45
2023-05-25T05:43:50.506Z,46.38
2023-05-25T05:46:18.579Z,45.15
2023-05-25T05:48:46.796Z,47.00
2023-05-25T05:51:14.977Z,46.25
2023-05-25T05:53:44.491Z,47.40
2023-05-25T05:56:18.736Z,45.75
2023-05-25T05:58:49.745Z,47.30
2023-05-25T06:01:18.152Z,46.20
2023-05-25T06:03:47.544Z,45.65
2023-05-25T06:06:15.738Z,46.17
2023-05-25T06:08:46.309Z,45.83
2023-05-25T06:11:14.368Z,45.78
2023-05-25T06:13:42.939Z,45.08
2023-05-25T06:16:13.116Z,44.85
2023-05-25T06:18:41.288Z,44.45
2023-05-25T06:21:10.715Z,45.20
2023-05-25T06:23:39.342Z,43.75
2023-05-25T06:26:08.814Z,44.70
2023-05-25T06:28:37.994Z,44.60
2023-05-25T06:31:06.280Z,44.90
2023-05-25T06:33:34.756Z,48.00
2023-05-25T06:36:02.767Z,45.83
2023-05-25T06:38:30.808Z,46.67
2023-05-25T06:41:02.610Z,49.58
2023-05-25T06:43:32.482Z,47.20
2023-05-25T06:46:00.719Z,50.65
2023-05-25T06:48:28.894Z,49.47
2023-05-25T06:50:57.028Z,49.63
2023-05-25T06:53:25.055Z,50.08
2023-05-25T06:55:53.022Z,49.47
2023-05-25T06:58:21.028Z,50.88
2023-05-25T07:00:50.664Z,50.60
2023-05-25T07:03:18.726Z,49.85
2023-05-25T07:05:46.742Z,50.80
2023-05-25T07:08:14.904Z,50.53
2023-05-25T07:10:43.073Z,51.05
2023-05-25T07:13:11.643Z,51.03
2023-05-25T07:15:39.752Z,52.72
2023-05-25T07:18:12.625Z,51.55
2023-05-25T07:20:42.193Z,51.60
2023-05-25T07:23:11.121Z,51.22
2023-05-25T07:25:39.438Z,51.72
2023-05-25T07:28:07.865Z,50.40
2023-05-25T07:30:36.638Z,50.22
2023-05-25T07:33:04.977Z,50.60
2023-05-25T07:35:35.608Z,51.20
2023-05-25T07:38:05.553Z,51.22
2023-05-25T07:40:34.002Z,52.63
2023-05-25T07:43:02.477Z,51.90
2023-05-25T07:45:30.511Z,53.35
2023-05-25T07:47:58.810Z,51.38
2023-05-25T07:50:27.270Z,51.67
2023-05-25T07:52:58.581Z,52.35
2023-05-25T07:55:28.193Z,52.80
2023-05-25T07:57:56.307Z,51.90
2023-05-25T08:00:24.715Z,50.33
2023-05-25T08:02:52.926Z,52.67
2023-05-25T08:05:21.404Z,49.65
2023-05-25T08:07:49.565Z,44.38
2023-05-25T08:10:19.291Z,44.35
2023-05-25T08:12:51.228Z,44.90
2023-05-25T08:15:20.581Z,44.42
2023-05-25T08:17:51.017Z,44.35
2023-05-25T08:20:19.590Z,44.75
2023-05-25T08:22:47.694Z,44.67
2023-05-25T08:25:15.890Z,44.50
2023-05-25T08:27:45.239Z,45.53
2023-05-25T08:30:13.813Z,46.20
2023-05-25T08:32:42.009Z,46.65
2023-05-25T08:35:11.101Z,44.50
2023-05-25T08:37:40.118Z,45.20
2023-05-25T08:40:10.805Z,46.63
2023-05-25T08:42:38.963Z,48.05
2023-05-25T08:45:22.601Z,46.83
2023-05-25T08:48:01.306Z,46.10
2023-05-25T08:50:32.156Z,46.72
2023-05-25T08:53:03.844Z,47.35
2023-05-25T08:55:36.441Z,47.03
2023-05-25T08:58:10.710Z,46.35
2023-05-25T09:00:46.148Z,47.92
2023-05-25T09:03:18.086Z,47.45
2023-05-25T09:05:47.271Z,47.22
2023-05-25T09:08:15.758Z,51.15
2023-05-25T09:10:47.685Z,51.10
2023-05-25T09:15:49.133Z,51.95
2023-05-25T09:18:17.396Z,51.42
2023-05-25T09:20:47.273Z,54.78
2023-05-25T09:23:16.361Z,53.67
2023-05-25T09:25:45.641Z,54.50
2023-05-25T09:28:26.292Z,53.63
2023-05-25T09:30:57.809Z,54.25
2023-05-25T09:33:26.012Z,52.00
2023-05-25T09:35:54.154Z,52.63
2023-05-25T09:38:22.618Z,50.38
2023-05-25T09:40:52.331Z,49.25
2023-05-25T09:43:36.323Z,50.97
2023-05-25T09:46:10.543Z,47.05
2023-05-25T09:48:39.405Z,45.03
2023-05-25T09:51:08.839Z,44.38
2023-05-25T09:53:37.756Z,40.92
2023-05-25T09:56:07.304Z,40.20
2023-05-25T09:58:35.357Z,40.05
2023-05-25T10:01:04.659Z,32.85
2023-05-25T10:03:34.294Z,20.85
2023-05-25T10:06:03.936Z,10.77
2023-05-25T10:08:33.915Z,9.45
2023-05-25T10:11:02.662Z,9.23
2023-05-25T10:13:32.160Z,8.02
2023-05-25T10:16:01.599Z,11.90
2023-05-25T10:18:33.809Z,10.52
2023-05-25T10:21:05.725Z,11.60
2023-05-25T10:23:41.458Z,8.98
2023-05-25T10:26:10.082Z,8.82
2023-05-25T10:28:39.499Z,8.10
2023-05-25T10:31:10.139Z,5.80
2023-05-25T10:33:38.755Z,8.32
2023-05-25T10:36:11.477Z,7.88
2023-05-25T10:38:42.076Z,7.47
2023-05-25T10:41:11.428Z,7.25
2023-05-25T10:43:40.794Z,7.97
2023-05-25T10:46:09.684Z,7.20
2023-05-25T10:48:38.979Z,10.93
2023-05-25T10:51:11.157Z,8.35
2023-05-25T10:53:40.148Z,7.05
2023-05-25T10:56:12.257Z,12.15
2023-05-25T10:58:44.654Z,9.40
2023-05-25T11:01:14.535Z,10.35
2023-05-25T11:03:56.529Z,10.13
2023-05-25T11:07:06.198Z,9.23
2023-05-25T11:09:38.765Z,9.23
2023-05-25T11:12:07.120Z,13.00
2023-05-25T11:14:38.304Z,9.95
2023-05-25T11:17:10.570Z,10.30
2023-05-25T11:19:50.754Z,9.57
2023-05-25T11:22:21.229Z,8.38
2023-05-25T11:24:51.774Z,12.70
2023-05-25T11:27:24.770Z,7.65
2023-05-25T11:29:54.009Z,10.88
2023-05-25T11:32:23.061Z,14.68
2023-05-25T11:34:54.146Z,11.98
2023-05-25T11:37:24.934Z,12.40
2023-05-25T11:39:55.089Z,11.20
2023-05-25T11:42:24.833Z,14.48
2023-05-25T11:44:54.493Z,12.18
2023-05-25T11:47:25.258Z,9.23
2023-05-25T11:49:56.678Z,11.10
2023-05-25T11:52:24.968Z,9.43
2023-05-25T11:54:54.555Z,9.90
2023-05-25T11:57:25.224Z,12.27
2023-05-25T11:59:55.213Z,10.20
2023-05-25T12:02:24.327Z,9.95
2023-05-25T12:04:56.339Z,11.90
2023-05-25T12:07:25.248Z,12.23
2023-05-25T12:10:07.076Z,9.55
2023-05-25T12:12:44.665Z,7.35
2023-05-25T12:15:14.821Z,8.48
2023-05-25T12:17:44.482Z,8.68
2023-05-25T12:20:15.471Z,8.73
2023-05-25T12:22:45.029Z,10.73
2023-05-25T12:25:16.850Z,8.77
2023-05-25T12:27:44.888Z,9.27
2023-05-25T12:30:13.223Z,5.72
2023-05-25T12:32:55.529Z,8.05
2023-05-25T12:35:23.827Z,9.85
2023-05-25T12:37:52.455Z,9.95
2023-05-25T12:40:24.920Z,8.18
2023-05-25T12:42:59.024Z,5.82
2023-05-25T12:45:27.915Z,9.15
2023-05-25T12:47:56.408Z,6.95
2023-05-25T12:50:24.666Z,5.22
2023-05-25T12:52:52.773Z,6.88
2023-05-25T12:55:25.863Z,6.28
2023-05-25T12:57:54.609Z,5.40
2023-05-25T13:00:23.839Z,6.45
2023-05-25T13:02:52.658Z,6.30
2023-05-25T13:05:22.543Z,10.07
2023-05-25T13:07:51.008Z,6.78
2023-05-25T13:10:19.906Z,11.23
2023-05-25T13:12:51.214Z,7.53
2023-05-25T13:15:21.967Z,10.20
2023-05-25T13:17:51.605Z,11.07
2023-05-25T13:20:21.230Z,10.93
2023-05-25T13:22:51.087Z,10.07
2023-05-25T13:25:21.993Z,12.35
2023-05-25T13:27:52.851Z,9.40
2023-05-25T13:30:22.094Z,9.43
2023-05-25T13:32:51.870Z,6.35
2023-05-25T13:35:34.186Z,14.52
2023-05-25T13:38:02.314Z,9.77
2023-05-25T13:40:30.414Z,9.68
2023-05-25T13:43:00.173Z,10.50
2023-05-25T13:45:28.326Z,15.32
2023-05-25T13:47:56.517Z,9.75
2023-05-25T13:50:24.822Z,9.43
2023-05-25T13:52:53.184Z,10.25
2023-05-25T13:55:21.194Z,7.45
2023-05-25T13:57:49.317Z,9.25
2023-05-25T14:00:19.633Z,8.65
2023-05-25T14:02:47.960Z,9.70
2023-05-25T14:05:16.126Z,9.80
2023-05-25T14:07:44.776Z,12.27
2023-05-25T14:10:13.096Z,11.70
2023-05-25T14:12:41.862Z,13.20
2023-05-25T14:15:10.841Z,11.05
2023-05-25T14:17:41.540Z,14.75
2023-05-25T14:20:16.359Z,11.02
2023-05-25T14:22:44.513Z,13.52
2023-05-25T14:25:12.758Z,15.43
2023-05-25T14:27:40.680Z,15.32
2023-05-25T14:30:09.912Z,13.23
2023-05-25T14:32:38.001Z,13.48
2023-05-25T14:35:08.882Z,14.85
2023-05-25T14:37:36.903Z,19.05
2023-05-25T14:40:05.646Z,16.20
2023-05-25T14:42:34.021Z,16.42
2023-05-25T14:45:02.036Z,16.02
2023-05-25T14:47:30.027Z,16.58
2023-05-25T14:49:58.043Z,14.52
2023-05-25T14:52:27.739Z,12.75
2023-05-25T14:54:55.811Z,15.15
2023-05-25T14:57:24.027Z,13.43
2023-05-25T14:59:52.486Z,13.75
2023-05-25T15:02:20.691Z,13.43
2023-05-25T15:04:48.809Z,15.13
2023-05-25T15:07:17.327Z,13.68
2023-05-25T15:09:47.102Z,14.40
2023-05-25T15:12:15.321Z,13.35
2023-05-25T15:14:43.748Z,15.30
2023-05-25T15:17:11.870Z,14.10
2023-05-25T15:19:40.037Z,15.25
2023-05-25T15:22:08.113Z,15.48
2023-05-25T15:24:36.417Z,18.20
2023-05-25T15:27:06.745Z,14.20
2023-05-25T15:29:34.973Z,13.73
2023-05-25T15:32:03.225Z,12.10
2023-05-25T15:34:31.450Z,10.80
2023-05-25T15:37:00.423Z,14.38
2023-05-25T15:39:28.528Z,13.40
2023-05-25T15:41:56.836Z,13.68
2023-05-25T15:44:26.423Z,11.52
2023-05-25T15:46:54.954Z,12.70
2023-05-25T15:49:23.101Z,15.05
2023-05-25T15:51:53.506Z,15.63
2023-05-25T15:54:21.690Z,15.50
2023-05-25T15:56:54.836Z,17.60
2023-05-25T15:59:23.047Z,18.75
2023-05-25T16:01:52.701Z,18.88
2023-05-25T16:04:21.368Z,17.15
2023-05-25T16:06:49.658Z,19.58
2023-05-25T16:09:18.130Z,21.92
2023-05-25T16:11:46.253Z,16.70
2023-05-25T16:14:14.477Z,21.02
2023-05-25T16:16:42.672Z,16.20
2023-05-25T16:19:13.959Z,16.20
2023-05-25T16:21:42.574Z,19.48
2023-05-25T16:24:11.091Z,15.88
2023-05-25T16:26:39.332Z,21.15
2023-05-25T16:29:07.302Z,13.65
2023-05-25T16:31:35.706Z,16.63
2023-05-25T16:34:04.233Z,18.33
2023-05-25T16:36:33.973Z,18.10
2023-05-25T16:39:05.589Z,19.95
2023-05-25T16:41:33.924Z,21.95
2023-05-25T16:44:02.431Z,22.30
2023-05-25T16:46:30.548Z,20.08
2023-05-25T16:48:58.637Z,16.33
2023-05-25T16:51:26.704Z,19.13
2023-05-25T16:53:56.338Z,17.27
2023-05-25T16:56:31.917Z,22.67
2023-05-25T16:59:00.245Z,23.67
2023-05-25T17:01:28.307Z,25.85
2023-05-25T17:03:56.605Z,15.77
2023-05-25T17:06:24.773Z,19.50
2023-05-25T17:08:52.833Z,19.17
2023-05-25T17:11:26.292Z,17.88
2023-05-25T17:13:54.656Z,16.35
2023-05-25T17:16:23.024Z,28.23
2023-05-25T17:18:51.197Z,20.88
2023-05-25T17:21:19.423Z,21.90
2023-05-25T17:23:49.005Z,16.02
2023-05-25T17:26:17.226Z,15.45
2023-05-25T17:28:46.848Z,17.70
2023-05-25T17:31:15.263Z,21.50
2023-05-25T17:33:43.407Z,18.63
2023-05-25T17:36:11.831Z,14.80
2023-05-25T17:38:41.155Z,18.92
2023-05-25T17:41:09.214Z,16.83
2023-05-25T17:43:37.307Z,15.70
2023-05-25T17:46:07.856Z,15.35
2023-05-25T17:48:36.597Z,19.83
2023-05-25T17:51:05.053Z,16.65
2023-05-25T17:53:33.124Z,15.05
2023-05-25T17:56:01.360Z,16.95
2023-05-25T17:58:29.322Z,17.67
2023-05-25T18:00:57.564Z,21.67
2023-05-25T18:03:27.201Z,19.77
2023-05-25T18:05:55.552Z,21.10
2023-05-25T18:08:23.752Z,27.88
2023-05-25T18:10:52.928Z,19.55
2023-05-25T18:13:21.115Z,18.63
2023-05-25T18:15:49.344Z,24.60
2023-05-25T18:18:20.569Z,24.08
2023-05-25T18:20:50.228Z,16.45
2023-05-25T18:23:18.477Z,18.95
2023-05-25T18:25:46.753Z,26.63
2023-05-25T18:28:15.293Z,26.63
2023-05-25T18:30:43.843Z,21.15
2023-05-25T18:33:11.980Z,19.98
2023-05-25T18:35:40.707Z,25.48
2023-05-25T18:38:10.068Z,20.00
2023-05-25T18:40:38.248Z,20.75
2023-05-25T18:43:07.885Z,21.50
2023-05-25T18:45:40.167Z,19.58
2023-05-25T18:48:08.582Z,19.63
2023-05-25T18:50:37.990Z,17.17
2023-05-25T18:53:07.872Z,22.25
2023-05-25T18:55:37.563Z,18.77
2023-05-25T18:58:06.528Z,21.30
2023-05-25T19:00:35.190Z,23.15
2023-05-25T19:03:03.491Z,22.73
2023-05-25T19:05:31.810Z,20.85
2023-05-25T19:08:01.209Z,22.17
2023-05-25T19:10:29.322Z,17.33
2023-05-25T19:12:59.065Z,26.40
2023-05-25T19:15:29.762Z,20.15
2023-05-25T19:17:58.418Z,17.50
2023-05-25T19:20:28.178Z,19.80
2023-05-25T19:23:00.207Z,17.45
2023-05-25T19:25:29.481Z,16.80
2023-05-25T19:28:00.534Z,20.00
2023-05-25T19:30:29.384Z,17.75
2023-05-25T19:32:57.516Z,25.92
2023-05-25T19:35:25.788Z,18.98
2023-05-25T19:37:54.145Z,19.42
2023-05-25T19:40:22.438Z,16.75
2023-05-25T19:42:50.747Z,22.33
2023-05-25T19:45:20.649Z,21.90
2023-05-25T19:47:49.084Z,20.40
2023-05-25T19:50:23.253Z,17.90
2023-05-25T19:52:51.586Z,15.18
2023-05-25T19:55:19.852Z,16.58
2023-05-25T19:57:50.104Z,17.63
2023-05-25T20:00:26.508Z,21.80
2023-05-25T20:02:55.381Z,24.77
2023-05-25T20:05:23.826Z,25.35
2023-05-25T20:07:52.604Z,20.05
2023-05-25T20:10:21.148Z,20.20
2023-05-25T20:12:49.647Z,18.27
2023-05-25T20:15:19.429Z,21.15
2023-05-25T20:17:47.579Z,18.23
2023-05-25T20:20:16.065Z,18.10
2023-05-25T20:22:44.204Z,24.70
2023-05-25T20:25:12.520Z,17.42
2023-05-25T20:27:40.624Z,17.40
2023-05-25T20:30:09.780Z,21.05
2023-05-25T20:32:39.185Z,22.20
2023-05-25T20:35:07.865Z,19.58
2023-05-25T20:37:36.256Z,22.80
2023-05-25T20:40:06.558Z,17.80
2023-05-25T20:42:34.913Z,20.15
2023-05-25T20:45:03.763Z,20.38
2023-05-25T20:47:31.790Z,24.38
2023-05-25T20:50:01.347Z,19.55
2023-05-25T20:52:29.345Z,22.50
2023-05-25T20:54:57.524Z,16.55
2023-05-25T20:57:25.672Z,17.13
2023-05-25T20:59:54.206Z,19.88
2023-05-25T21:02:22.282Z,24.60
2023-05-25T21:04:50.448Z,21.65
2023-05-25T21:07:20.068Z,26.83
2023-05-25T21:09:48.019Z,21.33
2023-05-25T21:12:16.146Z,18.55
2023-05-25T21:14:44.231Z,25.55
2023-05-25T21:17:12.605Z,21.67
2023-05-25T21:19:41.104Z,25.08
2023-05-25T21:22:09.369Z,24.13
2023-05-25T21:24:39.322Z,23.05
2023-05-25T21:27:07.710Z,17.88
2023-05-25T21:29:36.557Z,26.67
2023-05-25T21:32:04.992Z,17.58
2023-05-25T21:34:33.462Z,22.08
2023-05-25T21:37:01.660Z,26.13
2023-05-25T21:39:30.096Z,29.40
2023-05-25T21:41:59.563Z,17.02
2023-05-25T21:44:27.813Z,18.77
2023-05-25T21:46:56.024Z,21.58
2023-05-25T21:49:25.577Z,21.95
2023-05-25T21:51:53.703Z,21.63
2023-05-25T21:54:22.247Z,19.33
2023-05-25T21:56:50.367Z,24.10
2023-05-25T21:59:20.000Z,23.45
2023-05-25T22:01:49.329Z,22.60
2023-05-25T22:04:17.454Z,22.33
2023-05-25T22:06:45.442Z,22.33
2023-05-25T22:09:15.683Z,28.13
2023-05-25T22:11:43.787Z,23.98
2023-05-25T22:14:12.049Z,26.80
2023-05-25T22:16:41.734Z,20.77
2023-05-25T22:19:09.929Z,26.02
2023-05-25T22:21:38.405Z,24.92
2023-05-25T22:24:06.740Z,25.85
2023-05-25T22:26:35.228Z,21.42
2023-05-25T22:29:03.509Z,28.10
2023-05-25T22:31:31.665Z,27.30
2023-05-25T22:34:01.584Z,33.80
2023-05-25T22:36:29.604Z,33.00
2023-05-25T22:38:57.906Z,31.83
2023-05-25T22:41:26.531Z,33.80
2023-05-25T22:43:54.789Z,37.97
2023-05-25T22:46:23.335Z,38.63
2023-05-25T22:48:51.669Z,36.95
2023-05-25T22:51:21.047Z,40.50
2023-05-25T22:53:49.127Z,41.03
2023-05-25T22:56:17.218Z,43.08
2023-05-25T22:58:45.235Z,45.78
2023-05-25T23:01:13.415Z,45.60
2023-05-25T23:03:41.682Z,49.20
2023-05-25T23:06:10.009Z,47.90
2023-05-25T23:08:39.652Z,52.83
2023-05-25T23:11:07.742Z,54.22
2023-05-25T23:13:36.011Z,57.10
2023-05-25T23:16:05.385Z,56.50
2023-05-25T23:18:33.934Z,54.25
2023-05-25T23:21:02.030Z,59.17
2023-05-25T23:23:30.113Z,57.08
2023-05-25T23:25:59.599Z,59.38
2023-05-25T23:28:28.175Z,58.95
2023-05-25T23:30:56.614Z,57.30
2023-05-25T23:33:24.772Z,59.83
2023-05-25T23:35:52.818Z,60.10
2023-05-25T23:38:21.164Z,59.30
2023-05-25T23:40:49.226Z,60.17
2023-05-25T23:43:19.231Z,59.15
2023-05-25T23:45:47.925Z,60.15
2023-05-25T23:48:16.540Z,60.42
2023-05-25T23:50:44.617Z,62.50
2023-05-25T23:53:12.730Z,61.47
2023-05-25T23:55:40.831Z,64.70
2023-05-25T23:58:09.240Z,61.72
